sensor_id;sensor_type;location;lat;lon;timestamp;temperature;humidity
530;DHT22;251;48.704;9.210;2023-11-19T00:02:26;7.40;99.90
530;DHT22;251;48.704;9.210;2023-11-19T00:04:53;7.40;99.90
530;DHT22;251;48.704;9.210;2023-11-19T00:07:20;7.40;99.90
530;DHT22;251;48.704;9.210;2023-11-19T00:09:47;7.40;99.90
530;DHT22;251;48.704;9.210;2023-11-19T00:12:14;7.50;99.90
530;DHT22;251;48.704;9.210;2023-11-19T00:14:41;7.50;99.90
530;DHT22;251;48.704;9.210;2023-11-19T00:17:08;7.50;99.90
530;DHT22;251;48.704;9.210;2023-11-19T00:19:36;7.60;99.90
530;DHT22;251;48.704;9.210;2023-11-19T00:22:03;7.60;99.90
530;DHT22;251;48.704;9.210;2023-11-19T00:24:30;7.60;99.90
530;DHT22;251;48.704;9.210;2023-11-19T00:26:57;7.70;99.90
530;DHT22;251;48.704;9.210;2023-11-19T00:29:24;7.70;99.90
530;DHT22;251;48.704;9.210;2023-11-19T00:31:51;7.70;99.90
530;DHT22;251;48.704;9.210;2023-11-19T00:34:18;7.70;99.90
530;DHT22;251;48.704;9.210;2023-11-19T00:36:48;7.70;99.90
530;DHT22;251;48.704;9.210;2023-11-19T00:39:15;7.70;99.90
530;DHT22;251;48.704;9.210;2023-11-19T00:41:43;7.80;99.90
530;DHT22;251;48.704;9.210;2023-11-19T00:44:11;7.80;99.90
530;DHT22;251;48.704;9.210;2023-11-19T00:46:38;7.80;99.90
530;DHT22;251;48.704;9.210;2023-11-19T00:49:05;7.80;99.90
530;DHT22;251;48.704;9.210;2023-11-19T00:51:32;7.80;99.90
530;DHT22;251;48.704;9.210;2023-11-19T00:54:01;7.80;99.90
530;DHT22;251;48.704;9.210;2023-11-19T00:56:27;7.80;99.90
530;DHT22;251;48.704;9.210;2023-11-19T00:58:54;7.90;99.90
530;DHT22;251;48.704;9.210;2023-11-19T01:01:21;7.90;99.90
530;DHT22;251;48.704;9.210;2023-11-19T01:03:48;7.90;99.90
530;DHT22;251;48.704;9.210;2023-11-19T01:06:15;8.00;99.90
530;DHT22;251;48.704;9.210;2023-11-19T01:08:52;8.00;99.90
530;DHT22;251;48.704;9.210;2023-11-19T01:11:21;8.00;99.90
530;DHT22;251;48.704;9.210;2023-11-19T01:13:49;8.00;99.90
530;DHT22;251;48.704;9.210;2023-11-19T01:16:17;8.10;99.90
530;DHT22;251;48.704;9.210;2023-11-19T01:18:44;8.10;99.90
530;DHT22;251;48.704;9.210;2023-11-19T01:21:12;8.10;99.90
530;DHT22;251;48.704;9.210;2023-11-19T01:23:40;8.10;99.90
530;DHT22;251;48.704;9.210;2023-11-19T01:26:08;8.10;99.90
530;DHT22;251;48.704;9.210;2023-11-19T01:28:38;8.10;99.90
530;DHT22;251;48.704;9.210;2023-11-19T01:31:10;8.20;99.90
530;DHT22;251;48.704;9.210;2023-11-19T01:33:38;8.20;99.90
530;DHT22;251;48.704;9.210;2023-11-19T01:36:06;8.20;99.90
530;DHT22;251;48.704;9.210;2023-11-19T01:38:33;8.20;99.90
530;DHT22;251;48.704;9.210;2023-11-19T01:41:00;8.20;99.90
530;DHT22;251;48.704;9.210;2023-11-19T01:43:33;8.30;99.90
530;DHT22;251;48.704;9.210;2023-11-19T01:46:01;8.30;99.90
530;DHT22;251;48.704;9.210;2023-11-19T01:48:28;8.30;99.90
530;DHT22;251;48.704;9.210;2023-11-19T01:50:56;8.30;99.90
530;DHT22;251;48.704;9.210;2023-11-19T01:53:25;8.30;99.90
530;DHT22;251;48.704;9.210;2023-11-19T01:55:52;8.30;99.90
530;DHT22;251;48.704;9.210;2023-11-19T01:58:19;8.40;99.90
530;DHT22;251;48.704;9.210;2023-11-19T02:00:46;8.40;99.90
530;DHT22;251;48.704;9.210;2023-11-19T02:03:14;8.40;99.90
530;DHT22;251;48.704;9.210;2023-11-19T02:05:41;8.40;99.90
530;DHT22;251;48.704;9.210;2023-11-19T02:08:08;8.40;99.90
530;DHT22;251;48.704;9.210;2023-11-19T02:10:36;8.40;99.90
530;DHT22;251;48.704;9.210;2023-11-19T02:13:04;8.50;99.90
530;DHT22;251;48.704;9.210;2023-11-19T02:15:32;8.50;99.90
530;DHT22;251;48.704;9.210;2023-11-19T02:18:21;8.60;99.90
530;DHT22;251;48.704;9.210;2023-11-19T02:20:49;8.60;99.90
530;DHT22;251;48.704;9.210;2023-11-19T02:23:16;8.60;99.90
530;DHT22;251;48.704;9.210;2023-11-19T02:25:47;8.70;99.90
530;DHT22;251;48.704;9.210;2023-11-19T02:28:18;8.70;99.90
530;DHT22;251;48.704;9.210;2023-11-19T02:30:45;8.70;99.90
530;DHT22;251;48.704;9.210;2023-11-19T02:33:11;8.80;99.90
530;DHT22;251;48.704;9.210;2023-11-19T02:35:38;8.80;99.90
530;DHT22;251;48.704;9.210;2023-11-19T02:38:06;8.90;99.90
530;DHT22;251;48.704;9.210;2023-11-19T02:40:33;8.90;99.90
530;DHT22;251;48.704;9.210;2023-11-19T02:43:00;9.00;99.90
530;DHT22;251;48.704;9.210;2023-11-19T02:45:32;9.00;99.90
530;DHT22;251;48.704;9.210;2023-11-19T02:47:58;9.00;99.90
530;DHT22;251;48.704;9.210;2023-11-19T02:50:28;9.00;99.90
530;DHT22;251;48.704;9.210;2023-11-19T02:52:56;9.10;99.90
530;DHT22;251;48.704;9.210;2023-11-19T02:55:23;9.10;99.90
530;DHT22;251;48.704;9.210;2023-11-19T02:57:50;9.20;99.90
530;DHT22;251;48.704;9.210;2023-11-19T03:00:19;9.20;99.90
530;DHT22;251;48.704;9.210;2023-11-19T03:02:51;9.20;99.90
530;DHT22;251;48.704;9.210;2023-11-19T03:05:25;9.30;99.90
530;DHT22;251;48.704;9.210;2023-11-19T03:07:55;9.30;99.90
530;DHT22;251;48.704;9.210;2023-11-19T03:10:22;9.40;99.90
530;DHT22;251;48.704;9.210;2023-11-19T03:12:49;9.40;99.90
530;DHT22;251;48.704;9.210;2023-11-19T03:15:16;9.40;99.90
530;DHT22;251;48.704;9.210;2023-11-19T03:17:43;9.50;99.90
530;DHT22;251;48.704;9.210;2023-11-19T03:20:12;9.50;99.90
530;DHT22;251;48.704;9.210;2023-11-19T03:22:41;9.50;99.90
530;DHT22;251;48.704;9.210;2023-11-19T03:25:08;9.50;99.90
530;DHT22;251;48.704;9.210;2023-11-19T03:27:35;9.50;99.90
530;DHT22;251;48.704;9.210;2023-11-19T03:30:02;9.50;99.90
530;DHT22;251;48.704;9.210;2023-11-19T03:32:31;9.50;99.90
530;DHT22;251;48.704;9.210;2023-11-19T03:34:58;9.60;99.90
530;DHT22;251;48.704;9.210;2023-11-19T03:37:27;9.60;99.90
530;DHT22;251;48.704;9.210;2023-11-19T03:39:54;9.60;99.90
530;DHT22;251;48.704;9.210;2023-11-19T03:42:21;9.60;99.90
530;DHT22;251;48.704;9.210;2023-11-19T03:44:47;9.60;99.90
530;DHT22;251;48.704;9.210;2023-11-19T03:47:16;9.60;99.90
530;DHT22;251;48.704;9.210;2023-11-19T03:49:42;9.60;99.90
530;DHT22;251;48.704;9.210;2023-11-19T03:52:09;9.60;99.90
530;DHT22;251;48.704;9.210;2023-11-19T03:54:37;9.60;99.90
530;DHT22;251;48.704;9.210;2023-11-19T03:57:04;9.60;99.90
530;DHT22;251;48.704;9.210;2023-11-19T03:59:32;9.60;99.90
530;DHT22;251;48.704;9.210;2023-11-19T04:01:59;9.60;99.90
530;DHT22;251;48.704;9.210;2023-11-19T04:04:28;9.60;99.90
530;DHT22;251;48.704;9.210;2023-11-19T04:06:55;9.60;99.90
530;DHT22;251;48.704;9.210;2023-11-19T04:09:23;9.60;99.90
530;DHT22;251;48.704;9.210;2023-11-19T04:11:51;9.60;99.90
530;DHT22;251;48.704;9.210;2023-11-19T04:14:18;9.70;99.90
530;DHT22;251;48.704;9.210;2023-11-19T04:16:45;9.70;99.90
530;DHT22;251;48.704;9.210;2023-11-19T04:19:12;9.70;99.90
530;DHT22;251;48.704;9.210;2023-11-19T04:21:40;9.70;99.90
530;DHT22;251;48.704;9.210;2023-11-19T04:24:08;9.70;99.90
530;DHT22;251;48.704;9.210;2023-11-19T04:26:40;9.70;99.90
530;DHT22;251;48.704;9.210;2023-11-19T04:29:12;9.80;99.90
530;DHT22;251;48.704;9.210;2023-11-19T04:31:39;9.80;99.90
530;DHT22;251;48.704;9.210;2023-11-19T04:34:06;9.80;99.90
530;DHT22;251;48.704;9.210;2023-11-19T04:36:33;9.80;99.90
530;DHT22;251;48.704;9.210;2023-11-19T04:39:00;9.80;99.90
530;DHT22;251;48.704;9.210;2023-11-19T04:41:26;9.80;99.90
530;DHT22;251;48.704;9.210;2023-11-19T04:43:54;9.90;99.90
530;DHT22;251;48.704;9.210;2023-11-19T04:46:22;9.90;99.90
530;DHT22;251;48.704;9.210;2023-11-19T04:48:49;10.00;99.90
530;DHT22;251;48.704;9.210;2023-11-19T04:51:16;10.00;99.90
530;DHT22;251;48.704;9.210;2023-11-19T04:53:43;10.00;99.90
530;DHT22;251;48.704;9.210;2023-11-19T04:56:11;10.10;99.90
530;DHT22;251;48.704;9.210;2023-11-19T04:58:38;10.10;99.90
530;DHT22;251;48.704;9.210;2023-11-19T05:01:06;10.10;99.90
530;DHT22;251;48.704;9.210;2023-11-19T05:03:41;10.10;99.90
530;DHT22;251;48.704;9.210;2023-11-19T05:06:08;10.10;99.90
530;DHT22;251;48.704;9.210;2023-11-19T05:08:35;10.10;99.90
530;DHT22;251;48.704;9.210;2023-11-19T05:11:03;10.10;99.90
530;DHT22;251;48.704;9.210;2023-11-19T05:13:31;10.10;99.90
530;DHT22;251;48.704;9.210;2023-11-19T05:15:58;10.20;99.90
530;DHT22;251;48.704;9.210;2023-11-19T05:18:25;10.20;99.90
530;DHT22;251;48.704;9.210;2023-11-19T05:20:53;10.20;99.90
530;DHT22;251;48.704;9.210;2023-11-19T05:23:19;10.20;99.90
530;DHT22;251;48.704;9.210;2023-11-19T05:25:47;10.20;99.90
530;DHT22;251;48.704;9.210;2023-11-19T05:28:13;10.20;99.90
530;DHT22;251;48.704;9.210;2023-11-19T05:30:40;10.20;99.90
530;DHT22;251;48.704;9.210;2023-11-19T05:33:07;10.30;99.90
530;DHT22;251;48.704;9.210;2023-11-19T05:35:34;10.30;99.90
530;DHT22;251;48.704;9.210;2023-11-19T05:38:03;10.30;99.90
530;DHT22;251;48.704;9.210;2023-11-19T05:40:31;10.30;99.90
530;DHT22;251;48.704;9.210;2023-11-19T05:42:58;10.30;99.90
530;DHT22;251;48.704;9.210;2023-11-19T05:45:25;10.30;99.90
530;DHT22;251;48.704;9.210;2023-11-19T05:47:52;10.30;99.90
530;DHT22;251;48.704;9.210;2023-11-19T05:50:19;10.30;99.90
530;DHT22;251;48.704;9.210;2023-11-19T05:52:46;10.40;99.90
530;DHT22;251;48.704;9.210;2023-11-19T05:55:14;10.40;99.90
530;DHT22;251;48.704;9.210;2023-11-19T05:57:41;10.40;99.90
530;DHT22;251;48.704;9.210;2023-11-19T06:00:08;10.40;99.90
530;DHT22;251;48.704;9.210;2023-11-19T06:02:38;10.40;99.90
530;DHT22;251;48.704;9.210;2023-11-19T06:05:06;10.40;99.90
530;DHT22;251;48.704;9.210;2023-11-19T06:07:33;10.40;99.90
530;DHT22;251;48.704;9.210;2023-11-19T06:10:00;10.40;99.90
530;DHT22;251;48.704;9.210;2023-11-19T06:12:29;10.40;99.90
530;DHT22;251;48.704;9.210;2023-11-19T06:14:57;10.40;99.90
530;DHT22;251;48.704;9.210;2023-11-19T06:17:24;10.40;99.90
530;DHT22;251;48.704;9.210;2023-11-19T06:19:50;10.40;99.90
530;DHT22;251;48.704;9.210;2023-11-19T06:22:18;10.40;99.90
530;DHT22;251;48.704;9.210;2023-11-19T06:24:44;10.40;99.90
530;DHT22;251;48.704;9.210;2023-11-19T06:27:11;10.40;99.90
530;DHT22;251;48.704;9.210;2023-11-19T06:29:39;10.40;99.90
530;DHT22;251;48.704;9.210;2023-11-19T06:32:06;10.40;99.90
530;DHT22;251;48.704;9.210;2023-11-19T06:34:33;10.30;99.90
530;DHT22;251;48.704;9.210;2023-11-19T06:37:00;10.40;99.90
530;DHT22;251;48.704;9.210;2023-11-19T06:39:28;10.30;99.90
530;DHT22;251;48.704;9.210;2023-11-19T06:41:55;10.40;99.90
530;DHT22;251;48.704;9.210;2023-11-19T06:44:22;10.30;99.90
530;DHT22;251;48.704;9.210;2023-11-19T06:46:51;10.30;99.90
530;DHT22;251;48.704;9.210;2023-11-19T06:49:19;10.30;99.90
530;DHT22;251;48.704;9.210;2023-11-19T06:51:46;10.40;99.90
530;DHT22;251;48.704;9.210;2023-11-19T06:54:12;10.30;99.90
530;DHT22;251;48.704;9.210;2023-11-19T06:56:39;10.40;99.90
530;DHT22;251;48.704;9.210;2023-11-19T06:59:07;10.40;99.90
530;DHT22;251;48.704;9.210;2023-11-19T07:01:37;10.40;99.90
530;DHT22;251;48.704;9.210;2023-11-19T07:04:05;10.40;99.90
530;DHT22;251;48.704;9.210;2023-11-19T07:06:34;10.40;99.90
530;DHT22;251;48.704;9.210;2023-11-19T07:09:02;10.50;99.90
530;DHT22;251;48.704;9.210;2023-11-19T07:11:35;10.50;99.90
530;DHT22;251;48.704;9.210;2023-11-19T07:14:02;10.50;99.90
530;DHT22;251;48.704;9.210;2023-11-19T07:16:29;10.50;99.90
530;DHT22;251;48.704;9.210;2023-11-19T07:18:56;10.50;99.90
530;DHT22;251;48.704;9.210;2023-11-19T07:21:25;10.50;99.90
530;DHT22;251;48.704;9.210;2023-11-19T07:23:53;10.50;99.90
530;DHT22;251;48.704;9.210;2023-11-19T07:26:20;10.50;99.90
530;DHT22;251;48.704;9.210;2023-11-19T07:28:47;10.50;99.90
530;DHT22;251;48.704;9.210;2023-11-19T07:31:14;10.40;99.90
530;DHT22;251;48.704;9.210;2023-11-19T07:33:41;10.50;99.90
530;DHT22;251;48.704;9.210;2023-11-19T07:36:08;10.50;99.90
530;DHT22;251;48.704;9.210;2023-11-19T07:38:37;10.50;99.90
530;DHT22;251;48.704;9.210;2023-11-19T07:41:04;10.50;99.90
530;DHT22;251;48.704;9.210;2023-11-19T07:43:32;10.50;99.90
530;DHT22;251;48.704;9.210;2023-11-19T07:45:59;10.60;99.90
530;DHT22;251;48.704;9.210;2023-11-19T07:48:26;10.60;99.90
530;DHT22;251;48.704;9.210;2023-11-19T07:50:53;10.60;99.90
530;DHT22;251;48.704;9.210;2023-11-19T07:53:20;10.70;99.90
530;DHT22;251;48.704;9.210;2023-11-19T07:55:48;10.70;99.90
530;DHT22;251;48.704;9.210;2023-11-19T07:58:15;10.70;99.90
530;DHT22;251;48.704;9.210;2023-11-19T08:00:41;10.70;99.90
530;DHT22;251;48.704;9.210;2023-11-19T08:03:08;10.80;99.90
530;DHT22;251;48.704;9.210;2023-11-19T08:05:35;10.80;99.90
530;DHT22;251;48.704;9.210;2023-11-19T08:08:02;10.80;99.90
530;DHT22;251;48.704;9.210;2023-11-19T08:10:29;10.80;99.90
530;DHT22;251;48.704;9.210;2023-11-19T08:12:57;10.90;99.90
530;DHT22;251;48.704;9.210;2023-11-19T08:15:24;10.90;99.90
530;DHT22;251;48.704;9.210;2023-11-19T08:17:51;10.90;99.90
530;DHT22;251;48.704;9.210;2023-11-19T08:20:19;10.90;99.90
530;DHT22;251;48.704;9.210;2023-11-19T08:22:45;11.00;99.90
530;DHT22;251;48.704;9.210;2023-11-19T08:25:12;11.10;99.90
530;DHT22;251;48.704;9.210;2023-11-19T08:27:39;11.10;99.90
530;DHT22;251;48.704;9.210;2023-11-19T08:30:08;11.30;99.90
530;DHT22;251;48.704;9.210;2023-11-19T08:32:36;11.30;99.90
530;DHT22;251;48.704;9.210;2023-11-19T08:35:03;11.40;99.90
530;DHT22;251;48.704;9.210;2023-11-19T08:37:31;11.40;99.90
530;DHT22;251;48.704;9.210;2023-11-19T08:39:56;11.60;99.90
530;DHT22;251;48.704;9.210;2023-11-19T08:42:23;11.60;99.90
530;DHT22;251;48.704;9.210;2023-11-19T08:44:50;11.80;99.90
530;DHT22;251;48.704;9.210;2023-11-19T08:47:21;11.90;99.90
530;DHT22;251;48.704;9.210;2023-11-19T08:49:50;12.10;99.90
530;DHT22;251;48.704;9.210;2023-11-19T08:52:18;12.10;97.70
530;DHT22;251;48.704;9.210;2023-11-19T08:54:45;12.20;95.30
530;DHT22;251;48.704;9.210;2023-11-19T08:57:12;12.20;94.00
530;DHT22;251;48.704;9.210;2023-11-19T08:59:38;12.20;94.50
530;DHT22;251;48.704;9.210;2023-11-19T09:02:05;12.20;94.70
530;DHT22;251;48.704;9.210;2023-11-19T09:04:33;12.20;94.30
530;DHT22;251;48.704;9.210;2023-11-19T09:07:01;12.20;93.70
530;DHT22;251;48.704;9.210;2023-11-19T09:09:28;12.20;94.70
530;DHT22;251;48.704;9.210;2023-11-19T09:11:55;12.20;93.30
530;DHT22;251;48.704;9.210;2023-11-19T09:14:22;12.30;91.70
530;DHT22;251;48.704;9.210;2023-11-19T09:16:51;12.40;91.00
530;DHT22;251;48.704;9.210;2023-11-19T09:19:18;12.50;89.10
530;DHT22;251;48.704;9.210;2023-11-19T09:21:46;12.60;86.70
530;DHT22;251;48.704;9.210;2023-11-19T09:24:14;12.70;79.70
530;DHT22;251;48.704;9.210;2023-11-19T09:26:41;12.90;78.00
530;DHT22;251;48.704;9.210;2023-11-19T09:29:08;12.90;76.80
530;DHT22;251;48.704;9.210;2023-11-19T09:31:35;13.00;76.00
530;DHT22;251;48.704;9.210;2023-11-19T09:34:01;13.10;73.10
530;DHT22;251;48.704;9.210;2023-11-19T09:36:28;13.20;71.60
530;DHT22;251;48.704;9.210;2023-11-19T09:38:56;13.20;71.90
530;DHT22;251;48.704;9.210;2023-11-19T09:41:25;13.30;70.00
530;DHT22;251;48.704;9.210;2023-11-19T09:43:53;13.40;67.20
530;DHT22;251;48.704;9.210;2023-11-19T09:46:21;13.50;66.90
530;DHT22;251;48.704;9.210;2023-11-19T09:48:53;13.50;65.40
530;DHT22;251;48.704;9.210;2023-11-19T09:51:20;13.50;65.10
530;DHT22;251;48.704;9.210;2023-11-19T09:53:48;13.50;64.50
530;DHT22;251;48.704;9.210;2023-11-19T09:56:16;13.40;62.20
530;DHT22;251;48.704;9.210;2023-11-19T09:58:43;13.40;64.40
530;DHT22;251;48.704;9.210;2023-11-19T10:01:10;13.40;63.60
530;DHT22;251;48.704;9.210;2023-11-19T10:03:39;13.40;63.10
530;DHT22;251;48.704;9.210;2023-11-19T10:06:07;13.30;63.20
530;DHT22;251;48.704;9.210;2023-11-19T10:08:36;13.30;64.10
530;DHT22;251;48.704;9.210;2023-11-19T10:11:04;13.20;64.50
530;DHT22;251;48.704;9.210;2023-11-19T10:13:35;13.30;64.20
530;DHT22;251;48.704;9.210;2023-11-19T10:16:04;13.40;65.90
530;DHT22;251;48.704;9.210;2023-11-19T10:18:33;13.60;61.10
530;DHT22;251;48.704;9.210;2023-11-19T10:21:04;13.70;57.70
530;DHT22;251;48.704;9.210;2023-11-19T10:23:48;13.80;58.70
530;DHT22;251;48.704;9.210;2023-11-19T10:26:14;13.90;52.00
530;DHT22;251;48.704;9.210;2023-11-19T10:28:43;14.00;55.00
530;DHT22;251;48.704;9.210;2023-11-19T10:31:11;14.10;51.80
530;DHT22;251;48.704;9.210;2023-11-19T10:33:38;14.30;50.50
530;DHT22;251;48.704;9.210;2023-11-19T10:36:06;14.50;51.40
530;DHT22;251;48.704;9.210;2023-11-19T10:38:33;14.60;48.30
530;DHT22;251;48.704;9.210;2023-11-19T10:41:01;14.80;44.90
530;DHT22;251;48.704;9.210;2023-11-19T10:43:27;14.90;44.80
530;DHT22;251;48.704;9.210;2023-11-19T10:46:09;14.90;43.90
530;DHT22;251;48.704;9.210;2023-11-19T10:48:37;14.90;45.00
530;DHT22;251;48.704;9.210;2023-11-19T10:51:06;14.80;44.70
530;DHT22;251;48.704;9.210;2023-11-19T10:53:36;14.80;44.40
530;DHT22;251;48.704;9.210;2023-11-19T10:56:06;14.70;42.30
530;DHT22;251;48.704;9.210;2023-11-19T10:58:36;14.80;42.00
530;DHT22;251;48.704;9.210;2023-11-19T11:01:09;14.80;42.10
530;DHT22;251;48.704;9.210;2023-11-19T11:03:40;14.90;42.10
530;DHT22;251;48.704;9.210;2023-11-19T11:06:07;14.80;41.10
530;DHT22;251;48.704;9.210;2023-11-19T11:08:36;15.00;40.80
530;DHT22;251;48.704;9.210;2023-11-19T11:11:05;15.20;40.50
530;DHT22;251;48.704;9.210;2023-11-19T11:13:33;15.50;37.50
530;DHT22;251;48.704;9.210;2023-11-19T11:16:00;15.80;36.30
530;DHT22;251;48.704;9.210;2023-11-19T11:18:28;15.90;34.60
530;DHT22;251;48.704;9.210;2023-11-19T11:20:58;15.90;32.60
530;DHT22;251;48.704;9.210;2023-11-19T11:24:01;15.80;33.60
530;DHT22;251;48.704;9.210;2023-11-19T11:29:27;15.60;33.70
530;DHT22;251;48.704;9.210;2023-11-19T11:32:05;15.50;32.00
530;DHT22;251;48.704;9.210;2023-11-19T11:35:02;15.30;33.70
530;DHT22;251;48.704;9.210;2023-11-19T11:37:33;15.20;34.30
530;DHT22;251;48.704;9.210;2023-11-19T11:40:02;15.10;33.60
530;DHT22;251;48.704;9.210;2023-11-19T11:42:36;15.00;33.70
530;DHT22;251;48.704;9.210;2023-11-19T11:45:04;14.90;31.40
530;DHT22;251;48.704;9.210;2023-11-19T11:48:11;14.90;31.50
530;DHT22;251;48.704;9.210;2023-11-19T11:50:56;14.90;32.60
530;DHT22;251;48.704;9.210;2023-11-19T11:53:25;14.80;31.30
530;DHT22;251;48.704;9.210;2023-11-19T11:55:56;15.00;30.30
530;DHT22;251;48.704;9.210;2023-11-19T11:58:32;15.40;29.90
530;DHT22;251;48.704;9.210;2023-11-19T12:01:01;15.60;28.70
530;DHT22;251;48.704;9.210;2023-11-19T12:03:29;15.90;27.90
530;DHT22;251;48.704;9.210;2023-11-19T12:05:58;16.00;26.80
530;DHT22;251;48.704;9.210;2023-11-19T12:08:27;15.90;26.90
530;DHT22;251;48.704;9.210;2023-11-19T12:10:56;16.00;27.30
530;DHT22;251;48.704;9.210;2023-11-19T12:13:25;16.10;25.90
530;DHT22;251;48.704;9.210;2023-11-19T12:16:08;16.20;24.90
530;DHT22;251;48.704;9.210;2023-11-19T12:18:35;16.20;25.20
530;DHT22;251;48.704;9.210;2023-11-19T12:21:03;16.10;25.30
530;DHT22;251;48.704;9.210;2023-11-19T12:23:33;15.80;24.40
530;DHT22;251;48.704;9.210;2023-11-19T12:26:00;15.80;25.70
530;DHT22;251;48.704;9.210;2023-11-19T12:28:27;15.70;25.70
530;DHT22;251;48.704;9.210;2023-11-19T12:30:54;15.60;24.50
530;DHT22;251;48.704;9.210;2023-11-19T12:33:36;15.50;24.50
530;DHT22;251;48.704;9.210;2023-11-19T12:36:05;15.40;24.30
530;DHT22;251;48.704;9.210;2023-11-19T12:38:33;15.50;25.40
530;DHT22;251;48.704;9.210;2023-11-19T12:41:03;15.40;24.20
530;DHT22;251;48.704;9.210;2023-11-19T12:43:30;15.30;24.90
530;DHT22;251;48.704;9.210;2023-11-19T12:46:00;15.30;24.70
530;DHT22;251;48.704;9.210;2023-11-19T12:48:26;15.30;24.60
530;DHT22;251;48.704;9.210;2023-11-19T12:50:54;15.30;23.80
530;DHT22;251;48.704;9.210;2023-11-19T12:53:24;15.30;23.30
530;DHT22;251;48.704;9.210;2023-11-19T12:55:51;15.20;24.70
530;DHT22;251;48.704;9.210;2023-11-19T12:58:31;15.20;25.40
530;DHT22;251;48.704;9.210;2023-11-19T13:01:03;15.10;25.20
530;DHT22;251;48.704;9.210;2023-11-19T13:03:31;15.00;26.30
530;DHT22;251;48.704;9.210;2023-11-19T13:06:03;14.90;25.00
530;DHT22;251;48.704;9.210;2023-11-19T13:08:37;14.80;24.90
530;DHT22;251;48.704;9.210;2023-11-19T13:11:05;14.70;22.30
530;DHT22;251;48.704;9.210;2023-11-19T13:13:33;14.60;22.30
530;DHT22;251;48.704;9.210;2023-11-19T13:16:04;14.40;22.50
530;DHT22;251;48.704;9.210;2023-11-19T13:18:32;14.40;23.10
530;DHT22;251;48.704;9.210;2023-11-19T13:20:58;14.30;23.20
530;DHT22;251;48.704;9.210;2023-11-19T13:23:25;14.40;23.50
530;DHT22;251;48.704;9.210;2023-11-19T13:25:53;14.40;23.50
530;DHT22;251;48.704;9.210;2023-11-19T13:28:20;14.50;23.60
530;DHT22;251;48.704;9.210;2023-11-19T13:30:48;14.60;22.70
530;DHT22;251;48.704;9.210;2023-11-19T13:33:15;14.60;21.70
530;DHT22;251;48.704;9.210;2023-11-19T13:35:41;14.60;22.20
530;DHT22;251;48.704;9.210;2023-11-19T13:38:08;14.50;21.80
530;DHT22;251;48.704;9.210;2023-11-19T13:40:35;14.40;22.40
530;DHT22;251;48.704;9.210;2023-11-19T13:43:03;14.40;23.40
530;DHT22;251;48.704;9.210;2023-11-19T13:45:30;14.30;22.80
530;DHT22;251;48.704;9.210;2023-11-19T13:47:57;14.20;22.90
530;DHT22;251;48.704;9.210;2023-11-19T13:50:24;14.10;22.80
530;DHT22;251;48.704;9.210;2023-11-19T13:52:51;14.00;23.60
530;DHT22;251;48.704;9.210;2023-11-19T13:55:18;14.00;24.00
530;DHT22;251;48.704;9.210;2023-11-19T13:57:45;14.00;24.30
530;DHT22;251;48.704;9.210;2023-11-19T14:00:14;13.90;24.20
530;DHT22;251;48.704;9.210;2023-11-19T14:02:42;13.80;24.40
530;DHT22;251;48.704;9.210;2023-11-19T14:05:09;13.80;24.00
530;DHT22;251;48.704;9.210;2023-11-19T14:07:37;13.70;24.60
530;DHT22;251;48.704;9.210;2023-11-19T14:10:05;13.70;24.20
530;DHT22;251;48.704;9.210;2023-11-19T14:12:32;13.70;23.80
530;DHT22;251;48.704;9.210;2023-11-19T14:14:59;13.70;23.00
530;DHT22;251;48.704;9.210;2023-11-19T14:17:27;13.80;22.90
530;DHT22;251;48.704;9.210;2023-11-19T14:19:54;13.90;22.50
530;DHT22;251;48.704;9.210;2023-11-19T14:22:21;13.90;21.80
530;DHT22;251;48.704;9.210;2023-11-19T14:24:48;14.00;22.20
530;DHT22;251;48.704;9.210;2023-11-19T14:27:14;13.90;22.60
530;DHT22;251;48.704;9.210;2023-11-19T14:29:42;13.90;23.10
530;DHT22;251;48.704;9.210;2023-11-19T14:32:10;13.90;23.30
530;DHT22;251;48.704;9.210;2023-11-19T14:34:39;13.80;23.10
530;DHT22;251;48.704;9.210;2023-11-19T14:37:06;13.70;23.50
530;DHT22;251;48.704;9.210;2023-11-19T14:39:32;13.60;24.00
530;DHT22;251;48.704;9.210;2023-11-19T14:41:59;13.60;24.20
530;DHT22;251;48.704;9.210;2023-11-19T14:44:29;13.50;23.90
530;DHT22;251;48.704;9.210;2023-11-19T14:46:56;13.50;23.80
530;DHT22;251;48.704;9.210;2023-11-19T14:49:23;13.40;24.10
530;DHT22;251;48.704;9.210;2023-11-19T14:51:52;13.40;24.40
530;DHT22;251;48.704;9.210;2023-11-19T14:54:18;13.30;25.10
530;DHT22;251;48.704;9.210;2023-11-19T14:56:45;13.10;25.40
530;DHT22;251;48.704;9.210;2023-11-19T14:59:12;13.10;26.10
530;DHT22;251;48.704;9.210;2023-11-19T15:01:38;13.00;25.90
530;DHT22;251;48.704;9.210;2023-11-19T15:04:06;13.00;25.70
530;DHT22;251;48.704;9.210;2023-11-19T15:06:33;13.00;25.60
530;DHT22;251;48.704;9.210;2023-11-19T15:09:01;13.00;25.80
530;DHT22;251;48.704;9.210;2023-11-19T15:11:28;12.90;26.10
530;DHT22;251;48.704;9.210;2023-11-19T15:13:54;12.90;26.50
530;DHT22;251;48.704;9.210;2023-11-19T15:16:21;12.80;27.30
530;DHT22;251;48.704;9.210;2023-11-19T15:18:56;12.70;26.30
530;DHT22;251;48.704;9.210;2023-11-19T15:21:25;12.70;26.80
530;DHT22;251;48.704;9.210;2023-11-19T15:23:51;12.60;26.70
530;DHT22;251;48.704;9.210;2023-11-19T15:26:20;12.50;27.10
530;DHT22;251;48.704;9.210;2023-11-19T15:28:47;12.50;27.60
530;DHT22;251;48.704;9.210;2023-11-19T15:31:13;12.30;27.90
530;DHT22;251;48.704;9.210;2023-11-19T15:33:41;12.20;28.50
530;DHT22;251;48.704;9.210;2023-11-19T15:36:09;12.20;28.20
530;DHT22;251;48.704;9.210;2023-11-19T15:38:35;12.10;27.90
530;DHT22;251;48.704;9.210;2023-11-19T15:41:03;12.10;28.20
530;DHT22;251;48.704;9.210;2023-11-19T15:43:31;12.00;27.60
530;DHT22;251;48.704;9.210;2023-11-19T15:45:58;12.00;27.80
530;DHT22;251;48.704;9.210;2023-11-19T15:48:25;11.90;28.50
530;DHT22;251;48.704;9.210;2023-11-19T15:50:52;11.80;29.00
530;DHT22;251;48.704;9.210;2023-11-19T15:53:19;11.70;29.50
530;DHT22;251;48.704;9.210;2023-11-19T15:55:46;11.70;28.80
530;DHT22;251;48.704;9.210;2023-11-19T15:58:12;11.70;29.00
530;DHT22;251;48.704;9.210;2023-11-19T16:00:40;11.60;28.90
530;DHT22;251;48.704;9.210;2023-11-19T16:03:11;11.60;29.20
530;DHT22;251;48.704;9.210;2023-11-19T16:05:38;11.50;29.10
530;DHT22;251;48.704;9.210;2023-11-19T16:08:05;11.50;29.70
530;DHT22;251;48.704;9.210;2023-11-19T16:10:33;11.40;30.10
530;DHT22;251;48.704;9.210;2023-11-19T16:13:00;11.30;30.90
530;DHT22;251;48.704;9.210;2023-11-19T16:15:27;11.30;30.70
530;DHT22;251;48.704;9.210;2023-11-19T16:17:55;11.20;31.70
530;DHT22;251;48.704;9.210;2023-11-19T16:20:23;11.10;33.20
530;DHT22;251;48.704;9.210;2023-11-19T16:22:50;11.00;33.60
530;DHT22;251;48.704;9.210;2023-11-19T16:25:17;10.90;33.10
530;DHT22;251;48.704;9.210;2023-11-19T16:27:44;10.80;33.90
530;DHT22;251;48.704;9.210;2023-11-19T16:30:11;10.80;34.00
530;DHT22;251;48.704;9.210;2023-11-19T16:32:48;10.70;36.30
530;DHT22;251;48.704;9.210;2023-11-19T16:35:16;10.60;36.90
530;DHT22;251;48.704;9.210;2023-11-19T16:37:43;10.40;38.50
530;DHT22;251;48.704;9.210;2023-11-19T16:40:11;10.40;38.00
530;DHT22;251;48.704;9.210;2023-11-19T16:42:38;10.30;40.80
530;DHT22;251;48.704;9.210;2023-11-19T16:45:06;10.10;42.70
530;DHT22;251;48.704;9.210;2023-11-19T16:47:34;10.00;43.70
530;DHT22;251;48.704;9.210;2023-11-19T16:50:01;9.90;45.50